Time,TemperatureF,DewpointF,PressureIn,WindDirection,WindDirectionDegrees,WindSpeedMPH,WindSpeedGustMPH,Humidity,HourlyPrecipIn,Conditions,Clouds,dailyrainin,SoftwareType,DateUTC
2013-04-06 00:04:00,54.5,33.0,25.41,NW,308,23.0,38.0,44,0.00,,,0.00,weatherlink.com 1.10,2013-04-06 06:04:00,
2013-04-06 00:19:00,51.7,38.0,25.43,NW,323,23.0,36.0,59,0.00,,,0.00,weatherlink.com 1.10,2013-04-06 06:19:00,
2013-04-06 00:34:00,49.0,38.0,25.44,NNW,342,14.0,29.0,67,0.00,,,0.00,weatherlink.com 1.10,2013-04-06 06:34:00,
2013-04-06 00:49:00,47.0,37.0,25.45,NNW,342,14.0,25.0,68,0.00,,,0.00,weatherlink.com 1.10,2013-04-06 06:49:00,
2013-04-06 01:04:00,45.4,36.0,25.45,NNW,330,11.0,17.0,71,0.00,,,0.00,weatherlink.com 1.10,2013-04-06 07:04:00,
2013-04-06 01:19:00,44.8,36.0,25.44,NNW,333,10.0,17.0,72,0.00,,,0.00,weatherlink.com 1.10,2013-04-06 07:19:00,
2013-04-06 01:34:00,43.5,35.0,25.45,NW,324,9.0,12.0,73,0.00,,,0.00,weatherlink.com 1.10,2013-04-06 07:34:00,
2013-04-06 01:49:00,42.7,35.0,25.45,NW,322,9.0,13.0,75,0.00,,,0.00,weatherlink.com 1.10,2013-04-06 07:49:00,
2013-04-06 02:04:00,42.5,35.0,25.45,NNW,330,10.0,17.0,76,0.00,,,0.00,weatherlink.com 1.10,2013-04-06 08:04:00,
2013-04-06 02:19:00,42.4,35.0,25.45,NW,314,12.0,13.0,76,0.00,,,0.00,weatherlink.com 1.10,2013-04-06 08:19:00,
2013-04-06 02:34:00,42.4,35.0,25.46,NW,320,7.0,13.0,76,0.00,,,0.00,weatherlink.com 1.10,2013-04-06 08:34:00,
2013-04-06 02:50:00,40.2,34.0,25.46,NW,314,5.0,7.0,79,0.00,,,0.00,weatherlink.com 1.10,2013-04-06 08:50:00,
2013-04-06 03:05:00,38.1,33.0,25.46,WNW,301,5.0,7.0,82,0.00,,,0.00,weatherlink.com 1.10,2013-04-06 09:05:00,
2013-04-06 03:20:00,37.7,33.0,25.46,WNW,302,7.0,9.0,84,0.00,,,0.00,weatherlink.com 1.10,2013-04-06 09:20:00,
2013-04-06 03:35:00,38.5,34.0,25.46,WNW,296,5.0,9.0,83,0.00,,,0.00,weatherlink.com 1.10,2013-04-06 09:35:00,
2013-04-06 03:50:00,38.2,34.0,25.46,WNW,300,7.0,10.0,83,0.00,,,0.00,weatherlink.com 1.10,2013-04-06 09:50:00,
2013-04-06 04:05:00,38.6,34.0,25.46,NW,312,10.0,13.0,83,0.00,,,0.00,weatherlink.com 1.10,2013-04-06 10:05:00,
2013-04-06 04:20:00,39.3,34.0,25.46,NW,304,10.0,15.0,82,0.00,,,0.00,weatherlink.com 1.10,2013-04-06 10:20:00,
2013-04-06 04:35:00,39.2,34.0,25.46,NW,307,11.0,14.0,81,0.00,,,0.00,weatherlink.com 1.10,2013-04-06 10:35:00,
2013-04-06 04:50:00,38.3,33.0,25.47,WNW,302,10.0,12.0,81,0.00,,,0.00,weatherlink.com 1.10,2013-04-06 10:50:00,
2013-04-06 05:05:00,39.1,33.0,25.47,NW,309,14.0,18.0,80,0.00,,,0.00,weatherlink.com 1.10,2013-04-06 11:05:00,
2013-04-06 05:20:00,39.3,33.0,25.47,NW,307,15.0,18.0,79,0.00,,,0.00,weatherlink.com 1.10,2013-04-06 11:20:00,
2013-04-06 05:35:00,39.7,34.0,25.48,NW,306,11.0,18.0,79,0.00,,,0.00,weatherlink.com 1.10,2013-04-06 11:35:00,
2013-04-06 05:50:00,40.2,34.0,25.48,WNW,300,12.0,17.0,79,0.00,,,0.00,weatherlink.com 1.10,2013-04-06 11:50:00,
2013-04-06 06:05:00,39.8,34.0,25.48,WNW,285,11.0,16.0,80,0.00,,,0.00,weatherlink.com 1.10,2013-04-06 12:05:00,
2013-04-06 06:20:00,39.2,34.0,25.48,NW,305,12.0,14.0,80,0.00,,,0.00,weatherlink.com 1.10,2013-04-06 12:20:00,
2013-04-06 06:35:00,39.0,33.0,25.48,NW,304,12.0,16.0,79,0.00,,,0.00,weatherlink.com 1.10,2013-04-06 12:35:00,
2013-04-06 06:50:00,40.1,31.0,25.48,NW,311,12.0,17.0,71,0.00,,,0.00,weatherlink.com 1.10,2013-04-06 12:50:00,
2013-04-06 07:05:00,40.9,31.0,25.49,NW,306,7.0,17.0,68,0.00,,,0.00,weatherlink.com 1.10,2013-04-06 13:05:00,
2013-04-06 07:35:00,42.2,30.0,25.50,WNW,291,12.0,17.0,63,0.00,,,0.00,weatherlink.com 1.10,2013-04-06 13:35:00,
2013-04-06 07:50:00,44.3,30.0,25.51,WSW,255,14.0,18.0,58,0.00,,,0.00,weatherlink.com 1.10,2013-04-06 13:50:00,
2013-04-06 08:05:00,46.1,30.0,25.51,WNW,297,14.0,22.0,53,0.00,,,0.00,weatherlink.com 1.10,2013-04-06 14:05:00,
2013-04-06 08:20:00,48.7,30.0,25.50,NW,306,15.0,22.0,48,0.00,,,0.00,weatherlink.com 1.10,2013-04-06 14:20:00,
2013-04-06 08:35:00,51.0,29.0,25.50,NNW,328,22.0,27.0,43,0.00,,,0.00,weatherlink.com 1.10,2013-04-06 14:35:00,
2013-04-06 08:50:00,52.3,29.0,25.50,NW,314,21.0,28.0,41,0.00,,,0.00,weatherlink.com 1.10,2013-04-06 14:50:00,
2013-04-06 09:05:00,53.2,29.0,25.49,NNW,333,27.0,30.0,40,0.00,,,0.00,weatherlink.com 1.10,2013-04-06 15:05:00,
2013-04-06 09:20:00,53.6,28.0,25.49,NNW,327,20.0,35.0,38,0.00,,,0.00,weatherlink.com 1.10,2013-04-06 15:20:00,
2013-04-06 09:35:00,54.5,28.0,25.49,NNE,18,24.0,34.0,36,0.00,,,0.00,weatherlink.com 1.10,2013-04-06 15:35:00,
2013-04-06 09:50:00,54.8,28.0,25.49,NW,324,22.0,31.0,36,0.00,,,0.00,weatherlink.com 1.10,2013-04-06 15:50:00,
2013-04-06 10:05:00,55.8,28.0,25.49,NNW,333,25.0,32.0,34,0.00,,,0.00,weatherlink.com 1.10,2013-04-06 16:05:00,
2013-04-06 10:20:00,56.4,27.0,25.50,NW,319,24.0,27.0,33,0.00,,,0.00,weatherlink.com 1.10,2013-04-06 16:20:00,
2013-04-06 10:35:00,56.5,28.0,25.50,NW,316,22.0,34.0,33,0.00,,,0.00,weatherlink.com 1.10,2013-04-06 16:35:00,
2013-04-06 10:50:00,57.1,29.0,25.50,NW,321,23.0,30.0,34,0.00,,,0.00,weatherlink.com 1.10,2013-04-06 16:50:00,
2013-04-06 11:05:00,57.5,28.0,25.50,NW,312,19.0,30.0,32,0.00,,,0.00,weatherlink.com 1.10,2013-04-06 17:05:00,
2013-04-06 11:20:00,58.5,27.0,25.50,NNW,332,20.0,27.0,30,0.00,,,0.00,weatherlink.com 1.10,2013-04-06 17:20:00,
2013-04-06 11:36:00,58.8,26.0,25.50,NNW,339,10.0,23.0,29,0.00,,,0.00,weatherlink.com 1.10,2013-04-06 17:36:00,
2013-04-06 11:51:00,59.2,27.0,25.50,NW,321,16.0,26.0,29,0.00,,,0.00,weatherlink.com 1.10,2013-04-06 17:51:00,
2013-04-06 12:06:00,59.4,27.0,25.50,NNW,330,16.0,24.0,29,0.00,,,0.00,weatherlink.com 1.10,2013-04-06 18:06:00,
2013-04-06 12:21:00,59.5,26.0,25.50,NW,312,16.0,25.0,28,0.00,,,0.00,weatherlink.com 1.10,2013-04-06 18:21:00,
2013-04-06 12:36:00,60.0,27.0,25.50,NNW,338,17.0,22.0,28,0.00,,,0.00,weatherlink.com 1.10,2013-04-06 18:36:00,
2013-04-06 12:51:00,59.7,27.0,25.50,NNW,329,23.0,25.0,29,0.00,,,0.00,weatherlink.com 1.10,2013-04-06 18:51:00,
2013-04-06 13:06:00,60.3,27.0,25.50,NW,304,17.0,22.0,28,0.00,,,0.00,weatherlink.com 1.10,2013-04-06 19:06:00,
2013-04-06 13:21:00,61.5,27.0,25.49,WSW,249,8.0,20.0,27,0.00,,,0.00,weatherlink.com 1.10,2013-04-06 19:21:00,
2013-04-06 13:36:00,60.9,26.0,25.49,NNE,15,4.0,17.0,26,0.00,,,0.00,weatherlink.com 1.10,2013-04-06 19:36:00,
2013-04-06 13:51:00,60.8,27.0,25.48,NNW,340,10.0,24.0,28,0.00,,,0.00,weatherlink.com 1.10,2013-04-06 19:51:00,
2013-04-06 15:06:00,61.3,25.0,25.46,West,260,3.0,8.0,25,0.00,,,0.00,weatherlink.com 1.10,2013-04-06 21:06:00,
2013-04-06 15:36:00,61.7,24.0,25.46,WSW,242,5.0,12.0,24,0.00,,,0.00,weatherlink.com 1.10,2013-04-06 21:36:00,
2013-04-06 15:51:00,62.1,25.0,25.46,WNW,296,5.0,8.0,24,0.00,,,0.00,weatherlink.com 1.10,2013-04-06 21:51:00,
2013-04-06 16:06:00,62.7,24.0,25.45,West,262,15.0,19.0,23,0.00,,,0.00,weatherlink.com 1.10,2013-04-06 22:06:00,
2013-04-06 17:21:00,63.4,24.0,25.45,West,266,11.0,22.0,22,0.00,,,0.00,weatherlink.com 1.10,2013-04-06 23:21:00,
2013-04-06 17:36:00,62.1,22.0,25.45,West,262,8.0,16.0,21,0.00,,,0.00,weatherlink.com 1.10,2013-04-06 23:36:00,
2013-04-06 17:51:00,61.6,24.0,25.45,NW,324,13.0,24.0,24,0.00,,,0.00,weatherlink.com 1.10,2013-04-06 23:51:00,
2013-04-06 18:06:00,61.0,25.0,25.46,WNW,298,13.0,24.0,25,0.00,,,0.00,weatherlink.com 1.10,2013-04-07 00:06:00,
2013-04-06 18:21:00,61.6,25.0,25.45,WNW,302,16.0,19.0,25,0.00,,,0.00,weatherlink.com 1.10,2013-04-07 00:21:00,
2013-04-06 18:36:00,61.0,26.0,25.46,WNW,296,9.0,17.0,26,0.00,,,0.00,weatherlink.com 1.10,2013-04-07 00:36:00,
2013-04-06 18:51:00,59.8,26.0,25.46,WNW,295,8.0,12.0,27,0.00,,,0.00,weatherlink.com 1.10,2013-04-07 00:51:00,
2013-04-06 19:06:00,58.9,26.0,25.46,WNW,298,12.0,16.0,28,0.00,,,0.00,weatherlink.com 1.10,2013-04-07 01:06:00,
2013-04-06 19:21:00,57.7,27.0,25.46,WNW,300,9.0,18.0,31,0.00,,,0.00,weatherlink.com 1.10,2013-04-07 01:21:00,
2013-04-06 19:36:00,57.1,27.0,25.47,WNW,300,9.0,13.0,31,0.00,,,0.00,weatherlink.com 1.10,2013-04-07 01:36:00,
2013-04-06 19:51:00,57.2,29.0,25.47,West,276,13.0,23.0,34,0.00,,,0.00,weatherlink.com 1.10,2013-04-07 01:51:00,
2013-04-06 20:06:00,55.8,28.0,25.47,WNW,293,5.0,12.0,34,0.00,,,0.00,weatherlink.com 1.10,2013-04-07 02:06:00,
2013-04-06 20:36:00,51.1,27.0,25.48,SW,230,6.0,7.0,39,0.00,,,0.00,weatherlink.com 1.10,2013-04-07 02:36:00,
2013-04-06 20:51:00,50.1,27.0,25.48,WSW,239,5.0,7.0,41,0.00,,,0.00,weatherlink.com 1.10,2013-04-07 02:51:00,
2013-04-06 21:06:00,49.5,27.0,25.48,SW,235,6.0,7.0,42,0.00,,,0.00,weatherlink.com 1.10,2013-04-07 03:06:00,
2013-04-06 21:21:00,48.9,27.0,25.48,SW,235,6.0,7.0,43,0.00,,,0.00,weatherlink.com 1.10,2013-04-07 03:21:00,
2013-04-06 21:36:00,47.4,26.0,25.48,SW,229,6.0,8.0,44,0.00,,,0.00,weatherlink.com 1.10,2013-04-07 03:36:00,
2013-04-06 22:06:00,46.7,28.0,25.48,WSW,241,4.0,6.0,48,0.00,,,0.00,weatherlink.com 1.10,2013-04-07 04:06:00,
2013-04-06 22:21:00,47.2,29.0,25.48,WSW,246,6.0,6.0,49,0.00,,,0.00,weatherlink.com 1.10,2013-04-07 04:21:00,
2013-04-06 22:36:00,46.6,28.0,25.48,WSW,256,6.0,6.0,49,0.00,,,0.00,weatherlink.com 1.10,2013-04-07 04:36:00,
2013-04-06 22:51:00,45.9,29.0,25.48,WSW,250,5.0,6.0,51,0.00,,,0.00,weatherlink.com 1.10,2013-04-07 04:51:00,
2013-04-06 23:21:00,47.6,29.0,25.47,WSW,252,7.0,8.0,48,0.00,,,0.00,weatherlink.com 1.10,2013-04-07 05:21:00,
2013-04-06 23:51:00,48.0,28.0,25.47,WSW,245,6.0,6.0,47,0.00,,,0.00,weatherlink.com 1.10,2013-04-07 05:51:00,